Capt Leroy Devall Inc — WYU9878 — position and weather

sailwx.info

Track history (hours):
 
Tides and Currents Weather Stations Pressure Air Temp Water Temp Dewpoint Dewpoint Depression Visibility Wind Speed Wind Dir Waves Ship Positions

Capt Leroy Devall Inc

Owner: CAPT LEROY DEVALL INC, Sulphur, LA. More information available from US FCC via Universal Licensing System and Coast Guard Vessel Documentation Center.

Last reported at 2017-Nov-24 03:30 UTC. Time now 2017-Nov-24 03:48 UTC.
Position N 30°13' W 093°15'.

Length 20 m; draft 2.5 m.

Type: Towing. MMSI: 366973450.

Date/timePositionNaut miles runAvg speedWind from/ knotsBaromVisibWave heightAir tempDewpointWater temp
2017-Nov-24 03:30N 30°13' W 093°15'3 5.5
2017-Nov-24 03:00N 30°11' W 093°18'3 5.9
2017-Nov-24 02:30N 30°09' W 093°20'3 6.2
2017-Nov-24 02:00N 30°06' W 093°20'1 2.3
2017-Nov-24 01:30N 30°05' W 093°20'0 0.4
2017-Nov-24 01:00N 30°05' W 093°20'0 0.0
2017-Nov-24 00:30N 30°05' W 093°20'0 0.0
2017-Nov-24 00:00N 30°05' W 093°20'0 0.0
2017-Nov-23 23:30N 30°05' W 093°20'0 0.0
2017-Nov-23 23:00N 30°05' W 093°20'0 0.0
2017-Nov-23 22:30N 30°05' W 093°20'1 2.8
2017-Nov-23 22:00N 30°06' W 093°19'1 2.1
2017-Nov-23 21:30N 30°07' W 093°18'1 2.3
2017-Nov-23 21:00N 30°06' W 093°19'2 3.4
2017-Nov-23 20:30N 30°05' W 093°20'0 0.2
2017-Nov-23 20:00N 30°05' W 093°20'0 0.5
2017-Nov-23 19:30N 30°04' W 093°20'1 2.5
2017-Nov-23 19:00N 30°04' W 093°22'1 1.4
2017-Nov-23 18:30N 30°04' W 093°21'1 2.8
2017-Nov-23 18:00N 30°05' W 093°20'0 0.0
2017-Nov-23 17:30N 30°05' W 093°20'0 0.0
2017-Nov-23 17:00N 30°05' W 093°20'0 0.0
2017-Nov-23 16:30N 30°05' W 093°20'0 0.0
2017-Nov-23 16:00N 30°05' W 093°20'0 0.0
2017-Nov-23 15:30N 30°05' W 093°20'0 0.0
2017-Nov-23 15:00N 30°05' W 093°20'0 0.0
2017-Nov-23 14:30N 30°05' W 093°20'0 0.0
2017-Nov-23 14:00N 30°05' W 093°20'1 3.0
2017-Nov-23 13:30N 30°04' W 093°21'0 0.9
2017-Nov-23 13:00N 30°04' W 093°21'0 0.0
2017-Nov-23 12:30N 30°04' W 093°21'0 0.0
2017-Nov-23 12:00N 30°04' W 093°21'0 0.0
2017-Nov-23 11:30N 30°04' W 093°21'0 0.0
2017-Nov-23 11:00N 30°04' W 093°21'0 0.0
2017-Nov-23 10:30N 30°04' W 093°21'0 0.0
2017-Nov-23 10:00N 30°04' W 093°21'0 0.0
2017-Nov-23 09:30N 30°04' W 093°21'0 0.0
2017-Nov-23 09:00N 30°04' W 093°21'0 0.0
2017-Nov-23 08:30N 30°04' W 093°21'0 0.0
2017-Nov-23 08:00N 30°04' W 093°21'0 0.0
2017-Nov-23 07:30N 30°04' W 093°21'0 0.0
2017-Nov-23 07:00N 30°04' W 093°21'0 0.0
2017-Nov-23 06:30N 30°04' W 093°21'0 0.0
2017-Nov-23 06:00N 30°04' W 093°21'1 1.8
2017-Nov-23 05:30N 30°04' W 093°21'2 4.4
2017-Nov-23 05:00N 30°06' W 093°19'1 1.4
2017-Nov-23 04:30N 30°06' W 093°18'0 0.1
2017-Nov-23 04:00N 30°06' W 093°18'0 0.3
2017-Nov-23 03:30N 30°06' W 093°18'2 3.0
2017-Nov-23 03:00N 30°05' W 093°20'0 0.0
2017-Nov-23 02:30N 30°05' W 093°20'0 0.0
2017-Nov-23 02:00N 30°05' W 093°20'0 0.0
2017-Nov-23 01:30N 30°05' W 093°20'0 0.0
2017-Nov-23 01:00N 30°05' W 093°20'0 0.0
2017-Nov-23 00:30N 30°05' W 093°20'0 0.0
2017-Nov-23 00:00N 30°05' W 093°20'0 0.0
2017-Nov-22 23:30N 30°05' W 093°20'0 0.0
2017-Nov-22 23:00N 30°05' W 093°20'0 0.0
2017-Nov-22 22:30N 30°05' W 093°20'0 0.0
2017-Nov-22 22:00N 30°05' W 093°20'0 0.0
2017-Nov-22 21:30N 30°05' W 093°20'0 0.0
2017-Nov-22 21:00N 30°05' W 093°20'0 0.0
2017-Nov-22 20:30N 30°05' W 093°20'0 0.0
2017-Nov-22 20:00N 30°05' W 093°20'0 0.0
2017-Nov-22 19:30N 30°05' W 093°20'  
2017-Nov-20 00:31N 30°04' W 093°22'0 0.0
2017-Nov-20 00:00N 30°04' W 093°22'0 0.3
2017-Nov-19 23:31N 30°04' W 093°22'0 0.0
2017-Nov-19 23:01N 30°04' W 093°22'0 0.3
2017-Nov-19 22:31N 30°04' W 093°22'0 0.0
2017-Nov-19 22:01N 30°04' W 093°22'0 0.0
2017-Nov-19 21:31N 30°04' W 093°22'0 0.1
2017-Nov-19 21:01N 30°04' W 093°22'1 2.9
2017-Nov-19 20:31N 30°04' W 093°23'4 7.2
2017-Nov-19 20:00N 30°04' W 093°28'1 0.0
2017-Nov-18 21:47N 30°04' W 093°29'2 5.7
2017-Nov-18 21:30N 30°04' W 093°27'3 5.5
2017-Nov-18 21:00N 30°04' W 093°24'2 4.2
2017-Nov-18 20:30N 30°04' W 093°21'0 0.8
2017-Nov-18 20:00N 30°04' W 093°22'0 0.0
2017-Nov-18 19:30N 30°04' W 093°22'0 0.0
2017-Nov-18 19:00N 30°04' W 093°22'0 0.0
2017-Nov-18 18:30N 30°04' W 093°22'0 0.0
2017-Nov-18 18:00N 30°04' W 093°22'0 0.0
2017-Nov-18 17:30N 30°04' W 093°22'0 0.0
2017-Nov-18 17:00N 30°04' W 093°22'0 0.0
2017-Nov-18 16:30N 30°04' W 093°22'0 0.0
2017-Nov-18 16:00N 30°04' W 093°22'0 0.0
2017-Nov-18 15:30N 30°04' W 093°22'0 0.0
2017-Nov-18 15:00N 30°04' W 093°22'0 0.8
2017-Nov-18 14:30N 30°04' W 093°21'0 0.0
2017-Nov-18 14:00N 30°04' W 093°21'0 0.0
2017-Nov-18 13:30N 30°04' W 093°21'0 0.0
2017-Nov-18 13:00N 30°04' W 093°21'0 0.0
2017-Nov-18 12:30N 30°04' W 093°21'0 0.2
2017-Nov-18 12:00N 30°04' W 093°21'0 0.0
2017-Nov-18 11:30N 30°04' W 093°21'2 3.3
2017-Nov-18 11:00N 30°05' W 093°20'1 1.9
2017-Nov-18 10:30N 30°06' W 093°19'1 1.9
2017-Nov-18 10:00N 30°06' W 093°18'0 0.7
2017-Nov-18 09:30N 30°06' W 093°18'2 3.2
2017-Nov-18 09:00N 30°05' W 093°20'0 0.0
2017-Nov-18 08:30N 30°05' W 093°20'0 0.0
2017-Nov-18 08:00N 30°05' W 093°20'0 0.0
2017-Nov-18 07:30N 30°05' W 093°20'0 0.0
2017-Nov-18 07:00N 30°05' W 093°20'0 0.0
2017-Nov-18 06:30N 30°05' W 093°20'0 0.0
2017-Nov-18 06:00N 30°05' W 093°20'1 1.5
2017-Nov-18 05:30N 30°04' W 093°20'0 0.2
2017-Nov-18 05:00N 30°04' W 093°20'1 1.6
2017-Nov-18 04:30N 30°05' W 093°20'2 3.6
2017-Nov-18 04:00N 30°07' W 093°20'2 3.8
2017-Nov-18 03:30N 30°09' W 093°20'2 3.2
2017-Nov-18 03:00N 30°10' W 093°19'1 2.4
2017-Nov-18 02:30N 30°11' W 093°18'2 3.7
2017-Nov-18 02:00N 30°12' W 093°17'1 2.6
2017-Nov-18 01:30N 30°13' W 093°16'0 0.3
2017-Nov-18 00:15N 30°13' W 093°15'1 4.0
2017-Nov-18 00:00N 30°12' W 093°16'3 6.1
2017-Nov-17 23:30N 30°11' W 093°19'3 6.0
2017-Nov-17 23:00N 30°08' W 093°20'3 5.9
2017-Nov-17 22:30N 30°05' W 093°20'2 3.6
2017-Nov-17 22:00N 30°04' W 093°21'0 0.0
2017-Nov-17 21:30N 30°04' W 093°21'2 3.1
2017-Nov-17 21:00N 30°05' W 093°20'3 5.6
2017-Nov-17 20:30N 30°08' W 093°20'3 6.1
2017-Nov-17 20:00N 30°11' W 093°19'3 6.6
2017-Nov-17 19:30N 30°12' W 093°16'2 3.8
2017-Nov-17 19:00N 30°14' W 093°15'2 3.0
2017-Nov-17 18:27N 30°15' W 093°13'1 1.6
2017-Nov-17 17:52N 30°15' W 093°12'0 0.7
2017-Nov-17 17:19N 30°15' W 093°12'1 1.6
2017-Nov-17 16:51N 30°15' W 093°13'1 1.7
2017-Nov-17 16:26N 30°15' W 093°13'2 3.2
2017-Nov-17 15:52N 30°14' W 093°15'1 1.4
2017-Nov-17 15:29N 30°14' W 093°15'0 0.7
2017-Nov-17 15:00N 30°13' W 093°15'3 5.6
2017-Nov-17 14:30N 30°11' W 093°18'3 5.5
2017-Nov-17 14:00N 30°09' W 093°20'3 5.7
2017-Nov-17 13:30N 30°06' W 093°20'3 5.2
2017-Nov-17 13:00N 30°04' W 093°21'1 1.7
2017-Nov-17 12:30N 30°04' W 093°22'0 0.0
2017-Nov-17 12:00N 30°04' W 093°22'0 0.0
2017-Nov-17 11:30N 30°04' W 093°22'0 0.0
2017-Nov-17 11:00N 30°04' W 093°22'0 0.0
2017-Nov-17 10:30N 30°04' W 093°22'0 0.0
2017-Nov-17 10:00N 30°04' W 093°22'0 0.0
2017-Nov-17 09:30N 30°04' W 093°22'0 0.0
2017-Nov-17 09:00N 30°04' W 093°22'0 0.0
2017-Nov-17 08:30N 30°04' W 093°22'0 0.0
2017-Nov-17 08:00N 30°04' W 093°22'0 0.0
2017-Nov-17 07:30N 30°04' W 093°22'0 0.0
2017-Nov-17 07:00N 30°04' W 093°22'0 0.0
2017-Nov-17 06:30N 30°04' W 093°22'0 0.0
2017-Nov-17 06:00N 30°04' W 093°22'0 0.0
2017-Nov-17 05:30N 30°04' W 093°22'0 0.1
2017-Nov-17 05:00N 30°04' W 093°22'2 4.3
2017-Nov-17 04:30N 30°05' W 093°20'0 0.5
2017-Nov-17 04:00N 30°05' W 093°20'3 6.6
2017-Nov-17 03:30N 30°09' W 093°20'3 5.1
2017-Nov-17 03:00N 30°11' W 093°19'3 6.5
2017-Nov-17 02:30N 30°13' W 093°16'1 2.4
2017-Nov-17 02:00N 30°14' W 093°15'0 0.1
2017-Nov-17 01:29N 30°14' W 093°15'1 1.4
2017-Nov-17 01:00N 30°13' W 093°15'2 3.5
2017-Nov-17 00:30N 30°12' W 093°17'2 4.6
2017-Nov-17 00:00N 30°11' W 093°19'2 4.3
2017-Nov-16 23:30N 30°09' W 093°20'2 4.6
2017-Nov-16 23:00N 30°06' W 093°20'2 3.9
2017-Nov-16 22:30N 30°04' W 093°20'0 0.0
2017-Nov-16 22:00N 30°05' W 093°20'1 1.7
2017-Nov-16 21:30N 30°04' W 093°21'0 0.8
2017-Nov-16 21:00N 30°04' W 093°21'0 0.1
2017-Nov-16 20:30N 30°04' W 093°21'0 0.8
2017-Nov-16 20:00N 30°04' W 093°22'0 0.0
2017-Nov-16 19:30N 30°04' W 093°22'0 0.0
2017-Nov-16 19:00N 30°04' W 093°22'0 0.0
2017-Nov-16 18:30N 30°04' W 093°22'2 4.8
2017-Nov-16 18:00N 30°04' W 093°24'3 5.9
2017-Nov-16 17:30N 30°04' W 093°28'3 5.7
2017-Nov-16 17:00N 30°04' W 093°31'8 5.4
2017-Nov-16 15:33N 30°04' W 093°40'0 5.1
2017-Nov-16 15:29N 30°04' W 093°41'2 5.1
2017-Nov-16 15:00N 30°03' W 093°43'1 1.8
2017-Nov-16 14:30N 30°03' W 093°44'0 0.0
2017-Nov-16 14:00N 30°03' W 093°44'0 0.0
2017-Nov-16 13:30N 30°03' W 093°44'0 0.0
2017-Nov-16 13:00N 30°03' W 093°44'0 0.0
2017-Nov-16 12:30N 30°03' W 093°44'0 0.0
2017-Nov-16 12:00N 30°03' W 093°44'0 0.0
2017-Nov-16 11:30N 30°03' W 093°44'0 0.0
2017-Nov-16 11:00N 30°03' W 093°44'0 0.0
2017-Nov-16 10:30N 30°03' W 093°44'0 0.0
2017-Nov-16 10:00N 30°03' W 093°44'0 0.0
2017-Nov-16 09:30N 30°03' W 093°44'0 0.0
2017-Nov-16 09:01N 30°03' W 093°44'0 0.0
2017-Nov-16 08:30N 30°03' W 093°44'0 0.0
2017-Nov-16 08:00N 30°03' W 093°44'0 0.0
2017-Nov-16 07:27N 30°03' W 093°44'0 0.0
2017-Nov-16 06:56N 30°03' W 093°44'68 2.8
2017-Nov-15 06:14N 29°33' W 094°54'1 5.2
2017-Nov-15 06:01N 29°34' W 094°55'3 5.2
2017-Nov-15 05:30N 29°36' W 094°57'3 5.4
2017-Nov-15 05:00N 29°38' W 094°58'3 5.7
2017-Nov-15 04:29N 29°41' W 094°59'  
Track history (hours):
 
Tides and Currents Weather Stations Pressure Air Temp Water Temp Dewpoint Dewpoint Depression Visibility Wind Speed Wind Dir Waves Ship Positions

Capt Leroy Devall Inc

Owner: CAPT LEROY DEVALL INC, Sulphur, LA. More information available from US FCC via Universal Licensing System and Coast Guard Vessel Documentation Center.

Last reported at 2017-Nov-24 03:30 UTC. Time now 2017-Nov-24 03:48 UTC.
Position N 30°13' W 093°15'.

Length 20 m; draft 2.5 m.

Type: Towing. MMSI: 366973450.

Date/timePositionNaut miles runAvg speedWind from/ knotsBaromVisibWave heightAir tempDewpointWater temp
2017-Nov-24 03:30N 30°13' W 093°15'3 5.5
2017-Nov-24 03:00N 30°11' W 093°18'3 5.9
2017-Nov-24 02:30N 30°09' W 093°20'3 6.2
2017-Nov-24 02:00N 30°06' W 093°20'1 2.3
2017-Nov-24 01:30N 30°05' W 093°20'0 0.4
2017-Nov-24 01:00N 30°05' W 093°20'0 0.0
2017-Nov-24 00:30N 30°05' W 093°20'0 0.0
2017-Nov-24 00:00N 30°05' W 093°20'0 0.0
2017-Nov-23 23:30N 30°05' W 093°20'0 0.0
2017-Nov-23 23:00N 30°05' W 093°20'0 0.0
2017-Nov-23 22:30N 30°05' W 093°20'1 2.8
2017-Nov-23 22:00N 30°06' W 093°19'1 2.1
2017-Nov-23 21:30N 30°07' W 093°18'1 2.3
2017-Nov-23 21:00N 30°06' W 093°19'2 3.4
2017-Nov-23 20:30N 30°05' W 093°20'0 0.2
2017-Nov-23 20:00N 30°05' W 093°20'0 0.5
2017-Nov-23 19:30N 30°04' W 093°20'1 2.5
2017-Nov-23 19:00N 30°04' W 093°22'1 1.4
2017-Nov-23 18:30N 30°04' W 093°21'1 2.8
2017-Nov-23 18:00N 30°05' W 093°20'0 0.0
2017-Nov-23 17:30N 30°05' W 093°20'0 0.0
2017-Nov-23 17:00N 30°05' W 093°20'0 0.0
2017-Nov-23 16:30N 30°05' W 093°20'0 0.0
2017-Nov-23 16:00N 30°05' W 093°20'0 0.0
2017-Nov-23 15:30N 30°05' W 093°20'0 0.0
2017-Nov-23 15:00N 30°05' W 093°20'0 0.0
2017-Nov-23 14:30N 30°05' W 093°20'0 0.0
2017-Nov-23 14:00N 30°05' W 093°20'1 3.0
2017-Nov-23 13:30N 30°04' W 093°21'0 0.9
2017-Nov-23 13:00N 30°04' W 093°21'0 0.0
2017-Nov-23 12:30N 30°04' W 093°21'0 0.0
2017-Nov-23 12:00N 30°04' W 093°21'0 0.0
2017-Nov-23 11:30N 30°04' W 093°21'0 0.0
2017-Nov-23 11:00N 30°04' W 093°21'0 0.0
2017-Nov-23 10:30N 30°04' W 093°21'0 0.0
2017-Nov-23 10:00N 30°04' W 093°21'0 0.0
2017-Nov-23 09:30N 30°04' W 093°21'0 0.0
2017-Nov-23 09:00N 30°04' W 093°21'0 0.0
2017-Nov-23 08:30N 30°04' W 093°21'0 0.0
2017-Nov-23 08:00N 30°04' W 093°21'0 0.0
2017-Nov-23 07:30N 30°04' W 093°21'0 0.0
2017-Nov-23 07:00N 30°04' W 093°21'0 0.0
2017-Nov-23 06:30N 30°04' W 093°21'0 0.0
2017-Nov-23 06:00N 30°04' W 093°21'1 1.8
2017-Nov-23 05:30N 30°04' W 093°21'2 4.4
2017-Nov-23 05:00N 30°06' W 093°19'1 1.4
2017-Nov-23 04:30N 30°06' W 093°18'0 0.1
2017-Nov-23 04:00N 30°06' W 093°18'0 0.3
2017-Nov-23 03:30N 30°06' W 093°18'2 3.0
2017-Nov-23 03:00N 30°05' W 093°20'0 0.0
2017-Nov-23 02:30N 30°05' W 093°20'0 0.0
2017-Nov-23 02:00N 30°05' W 093°20'0 0.0
2017-Nov-23 01:30N 30°05' W 093°20'0 0.0
2017-Nov-23 01:00N 30°05' W 093°20'0 0.0
2017-Nov-23 00:30N 30°05' W 093°20'0 0.0
2017-Nov-23 00:00N 30°05' W 093°20'0 0.0
2017-Nov-22 23:30N 30°05' W 093°20'0 0.0
2017-Nov-22 23:00N 30°05' W 093°20'0 0.0
2017-Nov-22 22:30N 30°05' W 093°20'0 0.0
2017-Nov-22 22:00N 30°05' W 093°20'0 0.0
2017-Nov-22 21:30N 30°05' W 093°20'0 0.0
2017-Nov-22 21:00N 30°05' W 093°20'0 0.0
2017-Nov-22 20:30N 30°05' W 093°20'0 0.0
2017-Nov-22 20:00N 30°05' W 093°20'0 0.0
2017-Nov-22 19:30N 30°05' W 093°20'  
2017-Nov-20 00:31N 30°04' W 093°22'0 0.0
2017-Nov-20 00:00N 30°04' W 093°22'0 0.3
2017-Nov-19 23:31N 30°04' W 093°22'0 0.0
2017-Nov-19 23:01N 30°04' W 093°22'0 0.3
2017-Nov-19 22:31N 30°04' W 093°22'0 0.0
2017-Nov-19 22:01N 30°04' W 093°22'0 0.0
2017-Nov-19 21:31N 30°04' W 093°22'0 0.1
2017-Nov-19 21:01N 30°04' W 093°22'1 2.9
2017-Nov-19 20:31N 30°04' W 093°23'4 7.2
2017-Nov-19 20:00N 30°04' W 093°28'1 0.0
2017-Nov-18 21:47N 30°04' W 093°29'2 5.7
2017-Nov-18 21:30N 30°04' W 093°27'3 5.5
2017-Nov-18 21:00N 30°04' W 093°24'2 4.2
2017-Nov-18 20:30N 30°04' W 093°21'0 0.8
2017-Nov-18 20:00N 30°04' W 093°22'0 0.0
2017-Nov-18 19:30N 30°04' W 093°22'0 0.0
2017-Nov-18 19:00N 30°04' W 093°22'0 0.0
2017-Nov-18 18:30N 30°04' W 093°22'0 0.0
2017-Nov-18 18:00N 30°04' W 093°22'0 0.0
2017-Nov-18 17:30N 30°04' W 093°22'0 0.0
2017-Nov-18 17:00N 30°04' W 093°22'0 0.0
2017-Nov-18 16:30N 30°04' W 093°22'0 0.0
2017-Nov-18 16:00N 30°04' W 093°22'0 0.0
2017-Nov-18 15:30N 30°04' W 093°22'0 0.0
2017-Nov-18 15:00N 30°04' W 093°22'0 0.8
2017-Nov-18 14:30N 30°04' W 093°21'0 0.0
2017-Nov-18 14:00N 30°04' W 093°21'0 0.0
2017-Nov-18 13:30N 30°04' W 093°21'0 0.0
2017-Nov-18 13:00N 30°04' W 093°21'0 0.0
2017-Nov-18 12:30N 30°04' W 093°21'0 0.2
2017-Nov-18 12:00N 30°04' W 093°21'0 0.0
2017-Nov-18 11:30N 30°04' W 093°21'2 3.3
2017-Nov-18 11:00N 30°05' W 093°20'1 1.9
2017-Nov-18 10:30N 30°06' W 093°19'1 1.9
2017-Nov-18 10:00N 30°06' W 093°18'0 0.7
2017-Nov-18 09:30N 30°06' W 093°18'2 3.2
2017-Nov-18 09:00N 30°05' W 093°20'0 0.0
2017-Nov-18 08:30N 30°05' W 093°20'0 0.0
2017-Nov-18 08:00N 30°05' W 093°20'0 0.0
2017-Nov-18 07:30N 30°05' W 093°20'0 0.0
2017-Nov-18 07:00N 30°05' W 093°20'0 0.0
2017-Nov-18 06:30N 30°05' W 093°20'0 0.0
2017-Nov-18 06:00N 30°05' W 093°20'1 1.5
2017-Nov-18 05:30N 30°04' W 093°20'0 0.2
2017-Nov-18 05:00N 30°04' W 093°20'1 1.6
2017-Nov-18 04:30N 30°05' W 093°20'2 3.6
2017-Nov-18 04:00N 30°07' W 093°20'2 3.8
2017-Nov-18 03:30N 30°09' W 093°20'2 3.2
2017-Nov-18 03:00N 30°10' W 093°19'1 2.4
2017-Nov-18 02:30N 30°11' W 093°18'2 3.7
2017-Nov-18 02:00N 30°12' W 093°17'1 2.6
2017-Nov-18 01:30N 30°13' W 093°16'0 0.3
2017-Nov-18 00:15N 30°13' W 093°15'1 4.0
2017-Nov-18 00:00N 30°12' W 093°16'3 6.1
2017-Nov-17 23:30N 30°11' W 093°19'3 6.0
2017-Nov-17 23:00N 30°08' W 093°20'3 5.9
2017-Nov-17 22:30N 30°05' W 093°20'2 3.6
2017-Nov-17 22:00N 30°04' W 093°21'0 0.0
2017-Nov-17 21:30N 30°04' W 093°21'2 3.1
2017-Nov-17 21:00N 30°05' W 093°20'3 5.6
2017-Nov-17 20:30N 30°08' W 093°20'3 6.1
2017-Nov-17 20:00N 30°11' W 093°19'3 6.6
2017-Nov-17 19:30N 30°12' W 093°16'2 3.8
2017-Nov-17 19:00N 30°14' W 093°15'2 3.0
2017-Nov-17 18:27N 30°15' W 093°13'1 1.6
2017-Nov-17 17:52N 30°15' W 093°12'0 0.7
2017-Nov-17 17:19N 30°15' W 093°12'1 1.6
2017-Nov-17 16:51N 30°15' W 093°13'1 1.7
2017-Nov-17 16:26N 30°15' W 093°13'2 3.2
2017-Nov-17 15:52N 30°14' W 093°15'1 1.4
2017-Nov-17 15:29N 30°14' W 093°15'0 0.7
2017-Nov-17 15:00N 30°13' W 093°15'3 5.6
2017-Nov-17 14:30N 30°11' W 093°18'3 5.5
2017-Nov-17 14:00N 30°09' W 093°20'3 5.7
2017-Nov-17 13:30N 30°06' W 093°20'3 5.2
2017-Nov-17 13:00N 30°04' W 093°21'1 1.7
2017-Nov-17 12:30N 30°04' W 093°22'0 0.0
2017-Nov-17 12:00N 30°04' W 093°22'0 0.0
2017-Nov-17 11:30N 30°04' W 093°22'0 0.0
2017-Nov-17 11:00N 30°04' W 093°22'0 0.0
2017-Nov-17 10:30N 30°04' W 093°22'0 0.0
2017-Nov-17 10:00N 30°04' W 093°22'0 0.0
2017-Nov-17 09:30N 30°04' W 093°22'0 0.0
2017-Nov-17 09:00N 30°04' W 093°22'0 0.0
2017-Nov-17 08:30N 30°04' W 093°22'0 0.0
2017-Nov-17 08:00N 30°04' W 093°22'0 0.0
2017-Nov-17 07:30N 30°04' W 093°22'0 0.0
2017-Nov-17 07:00N 30°04' W 093°22'0 0.0
2017-Nov-17 06:30N 30°04' W 093°22'0 0.0
2017-Nov-17 06:00N 30°04' W 093°22'0 0.0
2017-Nov-17 05:30N 30°04' W 093°22'0 0.1
2017-Nov-17 05:00N 30°04' W 093°22'2 4.3
2017-Nov-17 04:30N 30°05' W 093°20'0 0.5
2017-Nov-17 04:00N 30°05' W 093°20'3 6.6
2017-Nov-17 03:30N 30°09' W 093°20'3 5.1
2017-Nov-17 03:00N 30°11' W 093°19'3 6.5
2017-Nov-17 02:30N 30°13' W 093°16'1 2.4
2017-Nov-17 02:00N 30°14' W 093°15'0 0.1
2017-Nov-17 01:29N 30°14' W 093°15'1 1.4
2017-Nov-17 01:00N 30°13' W 093°15'2 3.5
2017-Nov-17 00:30N 30°12' W 093°17'2 4.6
2017-Nov-17 00:00N 30°11' W 093°19'2 4.3
2017-Nov-16 23:30N 30°09' W 093°20'2 4.6
2017-Nov-16 23:00N 30°06' W 093°20'2 3.9
2017-Nov-16 22:30N 30°04' W 093°20'0 0.0
2017-Nov-16 22:00N 30°05' W 093°20'1 1.7
2017-Nov-16 21:30N 30°04' W 093°21'0 0.8
2017-Nov-16 21:00N 30°04' W 093°21'0 0.1
2017-Nov-16 20:30N 30°04' W 093°21'0 0.8
2017-Nov-16 20:00N 30°04' W 093°22'0 0.0
2017-Nov-16 19:30N 30°04' W 093°22'0 0.0
2017-Nov-16 19:00N 30°04' W 093°22'0 0.0
2017-Nov-16 18:30N 30°04' W 093°22'2 4.8
2017-Nov-16 18:00N 30°04' W 093°24'3 5.9
2017-Nov-16 17:30N 30°04' W 093°28'3 5.7
2017-Nov-16 17:00N 30°04' W 093°31'8 5.4
2017-Nov-16 15:33N 30°04' W 093°40'0 5.1
2017-Nov-16 15:29N 30°04' W 093°41'2 5.1
2017-Nov-16 15:00N 30°03' W 093°43'1 1.8
2017-Nov-16 14:30N 30°03' W 093°44'0 0.0
2017-Nov-16 14:00N 30°03' W 093°44'0 0.0
2017-Nov-16 13:30N 30°03' W 093°44'0 0.0
2017-Nov-16 13:00N 30°03' W 093°44'0 0.0
2017-Nov-16 12:30N 30°03' W 093°44'0 0.0
2017-Nov-16 12:00N 30°03' W 093°44'0 0.0
2017-Nov-16 11:30N 30°03' W 093°44'0 0.0
2017-Nov-16 11:00N 30°03' W 093°44'0 0.0
2017-Nov-16 10:30N 30°03' W 093°44'0 0.0
2017-Nov-16 10:00N 30°03' W 093°44'0 0.0
2017-Nov-16 09:30N 30°03' W 093°44'0 0.0
2017-Nov-16 09:01N 30°03' W 093°44'0 0.0
2017-Nov-16 08:30N 30°03' W 093°44'0 0.0
2017-Nov-16 08:00N 30°03' W 093°44'0 0.0
2017-Nov-16 07:27N 30°03' W 093°44'0 0.0
2017-Nov-16 06:56N 30°03' W 093°44'68 2.8
2017-Nov-15 06:14N 29°33' W 094°54'1 5.2
2017-Nov-15 06:01N 29°34' W 094°55'3 5.2
2017-Nov-15 05:30N 29°36' W 094°57'3 5.4
2017-Nov-15 05:00N 29°38' W 094°58'3 5.7
2017-Nov-15 04:29N 29°41' W 094°59'  

Dump ship's entire track history